Pixape — EA3796 — position and weather

sailwx.info

Track history (hours):
 
Tides and Currents Weather Stations Pressure Air Temp Water Temp Dewpoint Dewpoint Depression Visibility Wind Speed Wind Dir Waves Ship Positions

Pixape

Last reported at 2017-Sep-10 06:40 UTC. Time now 2017-Nov-24 07:08 UTC.
Position N 28°02' W 016°14'.
Warning: this ship's position is months out of date.

MMSI: 224024140.

Date/timePositionNaut miles runAvg speedWind from/ knotsBaromVisibWave heightAir tempDewpointWater temp
2017-Sep-10 06:40N 28°02' W 016°14'9 9.0
2017-Sep-10 05:37N 28°05' W 016°04'4 8.4
2017-Sep-10 05:07N 28°07' W 015°60'1 8.0
2017-Sep-10 04:57N 28°07' W 015°58'5 2.2
2017-Sep-10 02:38N 28°04' W 015°54'37 5.8
2017-Sep-09 20:19N 27°49' W 015°16'3 9.1
2017-Sep-09 19:57N 27°50' W 015°12'4 8.8
2017-Sep-09 19:29N 27°51' W 015°08'4 8.7
2017-Sep-09 19:00N 27°51' W 015°03'5 8.4
2017-Sep-09 18:25N 27°51' W 014°58'13 7.9
2017-Sep-09 16:46N 27°52' W 014°43'2 2.0
2017-Sep-09 15:41N 27°54' W 014°44'2 7.6
2017-Sep-09 15:24N 27°56' W 014°45'1 1.8
2017-Sep-09 14:52N 27°56' W 014°46'0 0.1
2017-Sep-09 14:12N 27°56' W 014°46'0 0.2
2017-Sep-09 14:00N 27°56' W 014°46'1 1.2
2017-Sep-09 13:27N 27°57' W 014°45'0 0.5
2017-Sep-09 13:00N 27°57' W 014°46'1 2.2
2017-Sep-09 12:30N 27°56' W 014°46'3 0.4
2017-Sep-09 03:53N 27°56' W 014°50'3 7.1
2017-Sep-09 03:30N 27°58' W 014°51'3 6.9
2017-Sep-09 03:00N 28°01' W 014°53'3 6.8
2017-Sep-09 02:30N 28°04' W 014°55'3 7.0
2017-Sep-09 02:00N 28°07' W 014°57'4 7.1
2017-Sep-09 01:30N 28°10' W 014°60'4 7.1
2017-Sep-09 01:00N 28°12' W 015°03'3 6.9
2017-Sep-09 00:30N 28°14' W 015°06'3 6.8
2017-Sep-09 00:00N 28°16' W 015°09'3 6.4
2017-Sep-08 23:30N 28°18' W 015°12'3 6.3
2017-Sep-08 23:00N 28°19' W 015°16'3 6.3
2017-Sep-08 22:30N 28°20' W 015°19'3 6.4
2017-Sep-08 22:00N 28°22' W 015°22'3 6.3
2017-Sep-08 21:30N 28°23' W 015°25'3 6.3
2017-Sep-08 21:00N 28°25' W 015°28'3 6.5
2017-Sep-08 20:30N 28°27' W 015°31'3 6.4
2017-Sep-08 20:00N 28°29' W 015°34'3 6.4
2017-Sep-08 19:30N 28°31' W 015°37'4 6.8
2017-Sep-08 18:56N 28°33' W 015°40'  
Track history (hours):
 
Tides and Currents Weather Stations Pressure Air Temp Water Temp Dewpoint Dewpoint Depression Visibility Wind Speed Wind Dir Waves Ship Positions

Pixape

Last reported at 2017-Sep-10 06:40 UTC. Time now 2017-Nov-24 07:08 UTC.
Position N 28°02' W 016°14'.
Warning: this ship's position is months out of date.

MMSI: 224024140.

Date/timePositionNaut miles runAvg speedWind from/ knotsBaromVisibWave heightAir tempDewpointWater temp
2017-Sep-10 06:40N 28°02' W 016°14'9 9.0
2017-Sep-10 05:37N 28°05' W 016°04'4 8.4
2017-Sep-10 05:07N 28°07' W 015°60'1 8.0
2017-Sep-10 04:57N 28°07' W 015°58'5 2.2
2017-Sep-10 02:38N 28°04' W 015°54'37 5.8
2017-Sep-09 20:19N 27°49' W 015°16'3 9.1
2017-Sep-09 19:57N 27°50' W 015°12'4 8.8
2017-Sep-09 19:29N 27°51' W 015°08'4 8.7
2017-Sep-09 19:00N 27°51' W 015°03'5 8.4
2017-Sep-09 18:25N 27°51' W 014°58'13 7.9
2017-Sep-09 16:46N 27°52' W 014°43'2 2.0
2017-Sep-09 15:41N 27°54' W 014°44'2 7.6
2017-Sep-09 15:24N 27°56' W 014°45'1 1.8
2017-Sep-09 14:52N 27°56' W 014°46'0 0.1
2017-Sep-09 14:12N 27°56' W 014°46'0 0.2
2017-Sep-09 14:00N 27°56' W 014°46'1 1.2
2017-Sep-09 13:27N 27°57' W 014°45'0 0.5
2017-Sep-09 13:00N 27°57' W 014°46'1 2.2
2017-Sep-09 12:30N 27°56' W 014°46'3 0.4
2017-Sep-09 03:53N 27°56' W 014°50'3 7.1
2017-Sep-09 03:30N 27°58' W 014°51'3 6.9
2017-Sep-09 03:00N 28°01' W 014°53'3 6.8
2017-Sep-09 02:30N 28°04' W 014°55'3 7.0
2017-Sep-09 02:00N 28°07' W 014°57'4 7.1
2017-Sep-09 01:30N 28°10' W 014°60'4 7.1
2017-Sep-09 01:00N 28°12' W 015°03'3 6.9
2017-Sep-09 00:30N 28°14' W 015°06'3 6.8
2017-Sep-09 00:00N 28°16' W 015°09'3 6.4
2017-Sep-08 23:30N 28°18' W 015°12'3 6.3
2017-Sep-08 23:00N 28°19' W 015°16'3 6.3
2017-Sep-08 22:30N 28°20' W 015°19'3 6.4
2017-Sep-08 22:00N 28°22' W 015°22'3 6.3
2017-Sep-08 21:30N 28°23' W 015°25'3 6.3
2017-Sep-08 21:00N 28°25' W 015°28'3 6.5
2017-Sep-08 20:30N 28°27' W 015°31'3 6.4
2017-Sep-08 20:00N 28°29' W 015°34'3 6.4
2017-Sep-08 19:30N 28°31' W 015°37'4 6.8
2017-Sep-08 18:56N 28°33' W 015°40'  

Dump ship's entire track history